sensor_id;sensor_type;location;lat;lon;timestamp;temperature;humidity
18163;DHT22;9206;50.994;4.538;2023-10-09T00:02:36;14.70;99.90
18163;DHT22;9206;50.994;4.538;2023-10-09T00:05:32;14.60;99.90
18163;DHT22;9206;50.994;4.538;2023-10-09T00:08:32;14.50;99.90
18163;DHT22;9206;50.994;4.538;2023-10-09T00:11:22;14.50;99.90
18163;DHT22;9206;50.994;4.538;2023-10-09T00:14:16;14.50;99.90
18163;DHT22;9206;50.994;4.538;2023-10-09T00:17:07;14.50;99.90
18163;DHT22;9206;50.994;4.538;2023-10-09T00:20:06;14.50;99.90
18163;DHT22;9206;50.994;4.538;2023-10-09T00:23:06;14.50;99.90
18163;DHT22;9206;50.994;4.538;2023-10-09T00:26:03;14.40;99.90
18163;DHT22;9206;50.994;4.538;2023-10-09T00:29:08;14.40;99.90
18163;DHT22;9206;50.994;4.538;2023-10-09T00:32:02;14.40;99.90
18163;DHT22;9206;50.994;4.538;2023-10-09T00:34:59;14.40;99.90
18163;DHT22;9206;50.994;4.538;2023-10-09T00:38:10;14.40;99.90
18163;DHT22;9206;50.994;4.538;2023-10-09T00:41:14;14.40;99.90
18163;DHT22;9206;50.994;4.538;2023-10-09T00:44:08;14.40;99.90
18163;DHT22;9206;50.994;4.538;2023-10-09T00:47:08;14.40;99.90
18163;DHT22;9206;50.994;4.538;2023-10-09T00:50:12;14.50;99.90
18163;DHT22;9206;50.994;4.538;2023-10-09T00:53:07;14.50;99.90
18163;DHT22;9206;50.994;4.538;2023-10-09T00:56:06;14.50;99.90
18163;DHT22;9206;50.994;4.538;2023-10-09T00:59:08;14.50;99.90
18163;DHT22;9206;50.994;4.538;2023-10-09T01:02:06;14.50;99.90
18163;DHT22;9206;50.994;4.538;2023-10-09T01:04:57;14.60;99.90
18163;DHT22;9206;50.994;4.538;2023-10-09T01:07:51;14.60;99.90
18163;DHT22;9206;50.994;4.538;2023-10-09T01:10:46;14.80;99.90
18163;DHT22;9206;50.994;4.538;2023-10-09T01:13:42;14.80;99.90
18163;DHT22;9206;50.994;4.538;2023-10-09T01:16:39;14.90;99.90
18163;DHT22;9206;50.994;4.538;2023-10-09T01:19:31;14.90;99.90
18163;DHT22;9206;50.994;4.538;2023-10-09T01:22:20;15.00;99.90
18163;DHT22;9206;50.994;4.538;2023-10-09T01:25:11;15.10;99.90
18163;DHT22;9206;50.994;4.538;2023-10-09T01:27:59;15.10;99.90
18163;DHT22;9206;50.994;4.538;2023-10-09T01:30:47;15.10;99.90
18163;DHT22;9206;50.994;4.538;2023-10-09T01:33:43;15.10;99.90
18163;DHT22;9206;50.994;4.538;2023-10-09T01:36:31;15.20;99.90
18163;DHT22;9206;50.994;4.538;2023-10-09T01:39:20;15.20;99.90
18163;DHT22;9206;50.994;4.538;2023-10-09T01:42:17;15.30;99.90
18163;DHT22;9206;50.994;4.538;2023-10-09T01:45:19;15.30;99.90
18163;DHT22;9206;50.994;4.538;2023-10-09T01:48:19;15.30;99.90
18163;DHT22;9206;50.994;4.538;2023-10-09T01:51:13;15.30;99.90
18163;DHT22;9206;50.994;4.538;2023-10-09T01:54:06;15.30;99.90
18163;DHT22;9206;50.994;4.538;2023-10-09T01:56:53;15.30;99.90
18163;DHT22;9206;50.994;4.538;2023-10-09T01:59:45;15.30;99.90
18163;DHT22;9206;50.994;4.538;2023-10-09T02:02:35;15.30;99.90
18163;DHT22;9206;50.994;4.538;2023-10-09T02:06:00;15.30;99.90
18163;DHT22;9206;50.994;4.538;2023-10-09T02:08:43;15.30;99.90
18163;DHT22;9206;50.994;4.538;2023-10-09T02:11:45;15.40;99.90
18163;DHT22;9206;50.994;4.538;2023-10-09T02:14:38;15.40;99.90
18163;DHT22;9206;50.994;4.538;2023-10-09T02:17:42;15.40;99.90
18163;DHT22;9206;50.994;4.538;2023-10-09T02:20:41;15.30;99.90
18163;DHT22;9206;50.994;4.538;2023-10-09T02:23:32;15.40;99.90
18163;DHT22;9206;50.994;4.538;2023-10-09T02:26:25;15.40;99.90
18163;DHT22;9206;50.994;4.538;2023-10-09T02:29:21;15.40;99.90
18163;DHT22;9206;50.994;4.538;2023-10-09T02:36:04;15.40;99.90
18163;DHT22;9206;50.994;4.538;2023-10-09T02:38:52;15.40;99.90
18163;DHT22;9206;50.994;4.538;2023-10-09T02:41:44;15.40;99.90
18163;DHT22;9206;50.994;4.538;2023-10-09T02:44:41;15.30;99.90
18163;DHT22;9206;50.994;4.538;2023-10-09T02:47:35;15.30;99.90
18163;DHT22;9206;50.994;4.538;2023-10-09T02:50:34;15.30;99.90
18163;DHT22;9206;50.994;4.538;2023-10-09T02:53:31;15.30;99.90
18163;DHT22;9206;50.994;4.538;2023-10-09T02:56:22;15.20;99.90
18163;DHT22;9206;50.994;4.538;2023-10-09T02:59:10;15.20;99.90
18163;DHT22;9206;50.994;4.538;2023-10-09T03:02:01;15.20;99.90
18163;DHT22;9206;50.994;4.538;2023-10-09T03:04:55;15.20;99.90
18163;DHT22;9206;50.994;4.538;2023-10-09T03:07:44;15.20;99.90
18163;DHT22;9206;50.994;4.538;2023-10-09T03:10:52;15.20;99.90
18163;DHT22;9206;50.994;4.538;2023-10-09T03:13:41;15.20;99.90
18163;DHT22;9206;50.994;4.538;2023-10-09T03:16:31;15.20;99.90
18163;DHT22;9206;50.994;4.538;2023-10-09T03:19:19;15.20;99.90
18163;DHT22;9206;50.994;4.538;2023-10-09T03:22:13;15.20;99.90
18163;DHT22;9206;50.994;4.538;2023-10-09T03:25:00;15.20;99.90
18163;DHT22;9206;50.994;4.538;2023-10-09T03:27:51;15.20;99.90
18163;DHT22;9206;50.994;4.538;2023-10-09T03:30:42;15.20;99.90
18163;DHT22;9206;50.994;4.538;2023-10-09T03:33:39;15.20;99.90
18163;DHT22;9206;50.994;4.538;2023-10-09T03:36:27;15.20;99.90
18163;DHT22;9206;50.994;4.538;2023-10-09T03:39:22;15.10;99.90
18163;DHT22;9206;50.994;4.538;2023-10-09T03:42:20;15.20;99.90
18163;DHT22;9206;50.994;4.538;2023-10-09T03:45:16;15.20;99.90
18163;DHT22;9206;50.994;4.538;2023-10-09T03:48:16;15.20;99.90
18163;DHT22;9206;50.994;4.538;2023-10-09T03:51:10;15.10;99.90
18163;DHT22;9206;50.994;4.538;2023-10-09T03:54:05;15.10;99.90
18163;DHT22;9206;50.994;4.538;2023-10-09T03:57:01;15.10;99.90
18163;DHT22;9206;50.994;4.538;2023-10-09T03:59:54;15.10;99.90
18163;DHT22;9206;50.994;4.538;2023-10-09T04:02:45;15.10;99.90
18163;DHT22;9206;50.994;4.538;2023-10-09T04:05:45;15.10;99.90
18163;DHT22;9206;50.994;4.538;2023-10-09T04:08:33;15.10;99.90
18163;DHT22;9206;50.994;4.538;2023-10-09T04:11:24;15.10;99.90
18163;DHT22;9206;50.994;4.538;2023-10-09T04:14:15;15.00;99.90
18163;DHT22;9206;50.994;4.538;2023-10-09T04:17:10;15.10;99.90
18163;DHT22;9206;50.994;4.538;2023-10-09T04:20:26;15.10;99.90
18163;DHT22;9206;50.994;4.538;2023-10-09T04:23:38;15.20;99.90
18163;DHT22;9206;50.994;4.538;2023-10-09T04:26:41;15.20;99.90
18163;DHT22;9206;50.994;4.538;2023-10-09T04:29:31;15.20;99.90
18163;DHT22;9206;50.994;4.538;2023-10-09T04:32:24;15.20;99.90
18163;DHT22;9206;50.994;4.538;2023-10-09T04:35:17;15.20;99.90
18163;DHT22;9206;50.994;4.538;2023-10-09T04:38:25;15.30;99.90
18163;DHT22;9206;50.994;4.538;2023-10-09T04:41:24;15.20;99.90
18163;DHT22;9206;50.994;4.538;2023-10-09T04:44:23;15.30;99.90
18163;DHT22;9206;50.994;4.538;2023-10-09T04:47:23;15.20;99.90
18163;DHT22;9206;50.994;4.538;2023-10-09T04:50:14;15.20;99.90
18163;DHT22;9206;50.994;4.538;2023-10-09T04:56:53;15.30;99.90
18163;DHT22;9206;50.994;4.538;2023-10-09T04:59:42;15.30;99.90
18163;DHT22;9206;50.994;4.538;2023-10-09T05:02:34;15.20;99.90
18163;DHT22;9206;50.994;4.538;2023-10-09T05:05:31;15.20;99.90
18163;DHT22;9206;50.994;4.538;2023-10-09T05:08:32;15.20;99.90
18163;DHT22;9206;50.994;4.538;2023-10-09T05:11:27;15.20;99.90
18163;DHT22;9206;50.994;4.538;2023-10-09T05:14:35;15.10;99.90
18163;DHT22;9206;50.994;4.538;2023-10-09T05:17:29;15.20;99.90
18163;DHT22;9206;50.994;4.538;2023-10-09T05:20:20;15.10;99.90
18163;DHT22;9206;50.994;4.538;2023-10-09T05:23:24;15.10;99.90
18163;DHT22;9206;50.994;4.538;2023-10-09T05:26:18;15.10;99.90
18163;DHT22;9206;50.994;4.538;2023-10-09T05:29:25;15.10;99.90
18163;DHT22;9206;50.994;4.538;2023-10-09T05:32:41;15.10;99.90
18163;DHT22;9206;50.994;4.538;2023-10-09T05:35:35;15.10;99.90
18163;DHT22;9206;50.994;4.538;2023-10-09T05:38:27;15.20;99.90
18163;DHT22;9206;50.994;4.538;2023-10-09T05:41:17;15.10;99.90
18163;DHT22;9206;50.994;4.538;2023-10-09T05:44:34;15.10;99.90
18163;DHT22;9206;50.994;4.538;2023-10-09T05:47:40;15.10;99.90
18163;DHT22;9206;50.994;4.538;2023-10-09T05:50:47;15.10;99.90
18163;DHT22;9206;50.994;4.538;2023-10-09T05:54:01;15.10;99.90
18163;DHT22;9206;50.994;4.538;2023-10-09T05:57:12;15.20;99.90
18163;DHT22;9206;50.994;4.538;2023-10-09T06:00:39;15.20;99.90
18163;DHT22;9206;50.994;4.538;2023-10-09T06:03:46;15.20;99.90
18163;DHT22;9206;50.994;4.538;2023-10-09T06:06:43;15.20;99.90
18163;DHT22;9206;50.994;4.538;2023-10-09T06:09:37;15.20;99.90
18163;DHT22;9206;50.994;4.538;2023-10-09T06:12:38;15.10;99.90
18163;DHT22;9206;50.994;4.538;2023-10-09T06:15:45;15.20;99.90
18163;DHT22;9206;50.994;4.538;2023-10-09T06:18:56;15.20;99.90
18163;DHT22;9206;50.994;4.538;2023-10-09T06:22:00;15.20;99.90
18163;DHT22;9206;50.994;4.538;2023-10-09T06:25:16;15.30;99.90
18163;DHT22;9206;50.994;4.538;2023-10-09T06:28:04;15.30;99.90
18163;DHT22;9206;50.994;4.538;2023-10-09T06:30:55;15.30;99.90
18163;DHT22;9206;50.994;4.538;2023-10-09T06:34:06;15.30;99.90
18163;DHT22;9206;50.994;4.538;2023-10-09T06:37:08;15.30;99.90
18163;DHT22;9206;50.994;4.538;2023-10-09T06:40:06;15.30;99.90
18163;DHT22;9206;50.994;4.538;2023-10-09T06:43:12;15.30;99.90
18163;DHT22;9206;50.994;4.538;2023-10-09T06:46:15;15.30;99.90
18163;DHT22;9206;50.994;4.538;2023-10-09T06:49:26;15.40;99.90
18163;DHT22;9206;50.994;4.538;2023-10-09T06:52:28;15.40;99.90
18163;DHT22;9206;50.994;4.538;2023-10-09T06:55:41;15.50;99.90
18163;DHT22;9206;50.994;4.538;2023-10-09T06:58:36;15.60;99.90
18163;DHT22;9206;50.994;4.538;2023-10-09T07:01:27;15.70;99.90
18163;DHT22;9206;50.994;4.538;2023-10-09T07:04:28;15.80;99.90
18163;DHT22;9206;50.994;4.538;2023-10-09T07:07:31;15.90;99.90
18163;DHT22;9206;50.994;4.538;2023-10-09T07:10:22;15.90;99.90
18163;DHT22;9206;50.994;4.538;2023-10-09T07:13:28;16.00;99.90
18163;DHT22;9206;50.994;4.538;2023-10-09T07:16:24;16.10;99.90
18163;DHT22;9206;50.994;4.538;2023-10-09T07:19:15;16.20;99.90
18163;DHT22;9206;50.994;4.538;2023-10-09T07:22:23;16.40;99.90
18163;DHT22;9206;50.994;4.538;2023-10-09T07:25:15;16.50;99.90
18163;DHT22;9206;50.994;4.538;2023-10-09T07:28:13;16.60;99.90
18163;DHT22;9206;50.994;4.538;2023-10-09T07:31:32;16.70;99.90
18163;DHT22;9206;50.994;4.538;2023-10-09T07:34:36;16.90;99.90
18163;DHT22;9206;50.994;4.538;2023-10-09T07:37:46;17.00;99.90
18163;DHT22;9206;50.994;4.538;2023-10-09T07:40:37;17.20;99.90
18163;DHT22;9206;50.994;4.538;2023-10-09T07:43:42;17.40;99.90
18163;DHT22;9206;50.994;4.538;2023-10-09T07:46:32;17.70;99.90
18163;DHT22;9206;50.994;4.538;2023-10-09T07:49:33;17.90;99.90
18163;DHT22;9206;50.994;4.538;2023-10-09T07:52:25;18.10;99.90
18163;DHT22;9206;50.994;4.538;2023-10-09T07:55:18;18.30;99.90
18163;DHT22;9206;50.994;4.538;2023-10-09T07:58:26;18.40;99.90
18163;DHT22;9206;50.994;4.538;2023-10-09T08:01:15;18.50;99.90
18163;DHT22;9206;50.994;4.538;2023-10-09T08:04:14;18.50;99.90
18163;DHT22;9206;50.994;4.538;2023-10-09T08:07:03;18.50;99.90
18163;DHT22;9206;50.994;4.538;2023-10-09T08:09:53;18.50;99.90
18163;DHT22;9206;50.994;4.538;2023-10-09T08:13:01;18.50;99.90
18163;DHT22;9206;50.994;4.538;2023-10-09T08:16:17;18.50;99.90
18163;DHT22;9206;50.994;4.538;2023-10-09T08:19:07;18.50;99.90
18163;DHT22;9206;50.994;4.538;2023-10-09T08:22:18;18.60;99.90
18163;DHT22;9206;50.994;4.538;2023-10-09T08:25:23;18.60;99.90
18163;DHT22;9206;50.994;4.538;2023-10-09T08:28:15;18.70;99.90
18163;DHT22;9206;50.994;4.538;2023-10-09T08:31:25;19.30;99.90
18163;DHT22;9206;50.994;4.538;2023-10-09T08:34:34;20.20;99.90
18163;DHT22;9206;50.994;4.538;2023-10-09T08:37:40;20.60;99.90
18163;DHT22;9206;50.994;4.538;2023-10-09T08:40:32;20.90;99.90
18163;DHT22;9206;50.994;4.538;2023-10-09T08:43:33;21.30;99.90
18163;DHT22;9206;50.994;4.538;2023-10-09T08:46:26;21.60;99.90
18163;DHT22;9206;50.994;4.538;2023-10-09T08:49:15;21.60;99.90
18163;DHT22;9206;50.994;4.538;2023-10-09T08:52:09;21.70;99.90
18163;DHT22;9206;50.994;4.538;2023-10-09T08:54:57;21.60;99.90
18163;DHT22;9206;50.994;4.538;2023-10-09T08:57:46;21.80;99.90
18163;DHT22;9206;50.994;4.538;2023-10-09T09:00:38;22.00;99.90
18163;DHT22;9206;50.994;4.538;2023-10-09T09:03:37;22.50;99.90
18163;DHT22;9206;50.994;4.538;2023-10-09T09:06:35;22.80;99.90
18163;DHT22;9206;50.994;4.538;2023-10-09T09:09:24;23.50;99.90
18163;DHT22;9206;50.994;4.538;2023-10-09T09:12:20;23.70;99.90
18163;DHT22;9206;50.994;4.538;2023-10-09T09:15:13;24.00;99.90
18163;DHT22;9206;50.994;4.538;2023-10-09T09:18:08;24.30;99.90
18163;DHT22;9206;50.994;4.538;2023-10-09T09:20:58;24.80;99.90
18163;DHT22;9206;50.994;4.538;2023-10-09T09:23:56;24.90;99.90
18163;DHT22;9206;50.994;4.538;2023-10-09T09:26:44;25.10;99.90
18163;DHT22;9206;50.994;4.538;2023-10-09T09:29:45;24.70;99.90
18163;DHT22;9206;50.994;4.538;2023-10-09T09:32:38;24.60;99.90
18163;DHT22;9206;50.994;4.538;2023-10-09T09:35:33;25.30;99.90
18163;DHT22;9206;50.994;4.538;2023-10-09T09:38:20;26.00;99.90
18163;DHT22;9206;50.994;4.538;2023-10-09T09:41:11;26.60;99.90
18163;DHT22;9206;50.994;4.538;2023-10-09T09:44:05;26.80;99.90
18163;DHT22;9206;50.994;4.538;2023-10-09T09:46:56;26.30;99.90
18163;DHT22;9206;50.994;4.538;2023-10-09T09:49:51;25.80;99.90
18163;DHT22;9206;50.994;4.538;2023-10-09T09:52:54;25.70;99.90
18163;DHT22;9206;50.994;4.538;2023-10-09T09:55:49;24.80;99.90
18163;DHT22;9206;50.994;4.538;2023-10-09T09:58:46;24.60;99.90
18163;DHT22;9206;50.994;4.538;2023-10-09T10:01:41;24.20;99.90
18163;DHT22;9206;50.994;4.538;2023-10-09T10:04:34;24.30;99.90
18163;DHT22;9206;50.994;4.538;2023-10-09T10:07:31;23.70;99.90
18163;DHT22;9206;50.994;4.538;2023-10-09T10:10:40;23.30;99.90
18163;DHT22;9206;50.994;4.538;2023-10-09T10:13:57;23.20;99.90
18163;DHT22;9206;50.994;4.538;2023-10-09T10:17:00;23.30;99.90
18163;DHT22;9206;50.994;4.538;2023-10-09T10:20:01;23.70;99.90
18163;DHT22;9206;50.994;4.538;2023-10-09T10:23:23;24.10;99.90
18163;DHT22;9206;50.994;4.538;2023-10-09T10:26:22;24.70;99.90
18163;DHT22;9206;50.994;4.538;2023-10-09T10:29:17;25.00;99.90
18163;DHT22;9206;50.994;4.538;2023-10-09T10:32:12;25.10;99.90
18163;DHT22;9206;50.994;4.538;2023-10-09T10:35:06;24.80;99.90
18163;DHT22;9206;50.994;4.538;2023-10-09T10:38:02;24.40;99.90
18163;DHT22;9206;50.994;4.538;2023-10-09T10:41:15;23.90;99.90
18163;DHT22;9206;50.994;4.538;2023-10-09T10:44:10;23.60;99.90
18163;DHT22;9206;50.994;4.538;2023-10-09T10:47:28;23.40;99.90
18163;DHT22;9206;50.994;4.538;2023-10-09T10:50:27;23.50;99.90
18163;DHT22;9206;50.994;4.538;2023-10-09T10:53:25;23.70;99.90
18163;DHT22;9206;50.994;4.538;2023-10-09T10:56:20;23.70;99.90
18163;DHT22;9206;50.994;4.538;2023-10-09T10:59:30;23.60;99.90
18163;DHT22;9206;50.994;4.538;2023-10-09T11:02:22;23.60;99.90
18163;DHT22;9206;50.994;4.538;2023-10-09T11:05:25;23.60;99.90
18163;DHT22;9206;50.994;4.538;2023-10-09T11:08:37;23.60;99.90
18163;DHT22;9206;50.994;4.538;2023-10-09T11:11:39;23.80;99.90
18163;DHT22;9206;50.994;4.538;2023-10-09T11:14:30;23.80;99.90
18163;DHT22;9206;50.994;4.538;2023-10-09T11:17:35;24.00;99.90
18163;DHT22;9206;50.994;4.538;2023-10-09T11:20:27;24.00;99.90
18163;DHT22;9206;50.994;4.538;2023-10-09T11:23:21;24.10;99.90
18163;DHT22;9206;50.994;4.538;2023-10-09T11:26:17;24.10;99.90
18163;DHT22;9206;50.994;4.538;2023-10-09T11:29:15;24.20;99.90
18163;DHT22;9206;50.994;4.538;2023-10-09T11:32:16;24.30;99.90
18163;DHT22;9206;50.994;4.538;2023-10-09T11:35:13;24.20;99.90
18163;DHT22;9206;50.994;4.538;2023-10-09T11:38:07;24.20;99.90
18163;DHT22;9206;50.994;4.538;2023-10-09T11:41:15;24.10;99.90
18163;DHT22;9206;50.994;4.538;2023-10-09T11:44:15;24.10;99.90
18163;DHT22;9206;50.994;4.538;2023-10-09T11:47:15;24.10;99.90
18163;DHT22;9206;50.994;4.538;2023-10-09T11:50:16;23.90;99.90
18163;DHT22;9206;50.994;4.538;2023-10-09T11:53:12;23.60;99.90
18163;DHT22;9206;50.994;4.538;2023-10-09T11:56:21;23.40;99.90
18163;DHT22;9206;50.994;4.538;2023-10-09T11:59:15;23.60;99.90
18163;DHT22;9206;50.994;4.538;2023-10-09T12:02:03;23.80;99.90
18163;DHT22;9206;50.994;4.538;2023-10-09T12:04:52;23.90;99.90
18163;DHT22;9206;50.994;4.538;2023-10-09T12:07:50;24.00;99.90
18163;DHT22;9206;50.994;4.538;2023-10-09T12:10:48;24.40;99.90
18163;DHT22;9206;50.994;4.538;2023-10-09T12:13:35;24.40;99.90
18163;DHT22;9206;50.994;4.538;2023-10-09T12:16:24;24.40;99.90
18163;DHT22;9206;50.994;4.538;2023-10-09T12:19:14;24.30;99.90
18163;DHT22;9206;50.994;4.538;2023-10-09T12:22:04;24.40;99.90
18163;DHT22;9206;50.994;4.538;2023-10-09T12:24:52;24.40;99.90
18163;DHT22;9206;50.994;4.538;2023-10-09T12:27:40;24.30;99.90
18163;DHT22;9206;50.994;4.538;2023-10-09T12:30:36;24.20;99.90
18163;DHT22;9206;50.994;4.538;2023-10-09T12:33:28;24.10;99.90
18163;DHT22;9206;50.994;4.538;2023-10-09T12:36:16;24.20;99.90
18163;DHT22;9206;50.994;4.538;2023-10-09T12:39:20;24.20;99.90
18163;DHT22;9206;50.994;4.538;2023-10-09T12:42:07;24.30;99.90
18163;DHT22;9206;50.994;4.538;2023-10-09T12:44:56;24.00;99.90
18163;DHT22;9206;50.994;4.538;2023-10-09T12:47:46;23.90;99.90
18163;DHT22;9206;50.994;4.538;2023-10-09T12:50:49;23.70;99.90
18163;DHT22;9206;50.994;4.538;2023-10-09T12:53:39;23.50;99.90
18163;DHT22;9206;50.994;4.538;2023-10-09T12:56:28;23.40;99.90
18163;DHT22;9206;50.994;4.538;2023-10-09T12:59:24;23.30;99.90
18163;DHT22;9206;50.994;4.538;2023-10-09T13:02:12;23.20;99.90
18163;DHT22;9206;50.994;4.538;2023-10-09T13:05:14;23.20;99.90
18163;DHT22;9206;50.994;4.538;2023-10-09T13:08:19;23.20;99.90
18163;DHT22;9206;50.994;4.538;2023-10-09T13:11:09;23.20;99.90
18163;DHT22;9206;50.994;4.538;2023-10-09T13:14:01;23.20;99.90
18163;DHT22;9206;50.994;4.538;2023-10-09T13:17:00;23.20;99.90
18163;DHT22;9206;50.994;4.538;2023-10-09T13:19:54;23.40;99.90
18163;DHT22;9206;50.994;4.538;2023-10-09T13:22:43;23.50;99.90
18163;DHT22;9206;50.994;4.538;2023-10-09T13:25:34;23.50;99.90
18163;DHT22;9206;50.994;4.538;2023-10-09T13:28:26;23.90;99.90
18163;DHT22;9206;50.994;4.538;2023-10-09T13:31:17;24.30;99.90
18163;DHT22;9206;50.994;4.538;2023-10-09T13:34:06;24.80;99.90
18163;DHT22;9206;50.994;4.538;2023-10-09T13:36:56;25.20;99.90
18163;DHT22;9206;50.994;4.538;2023-10-09T13:39:48;25.20;99.90
18163;DHT22;9206;50.994;4.538;2023-10-09T13:42:39;24.90;99.90
18163;DHT22;9206;50.994;4.538;2023-10-09T13:45:38;24.50;99.90
18163;DHT22;9206;50.994;4.538;2023-10-09T13:48:27;24.10;99.90
18163;DHT22;9206;50.994;4.538;2023-10-09T13:51:17;23.70;99.90
18163;DHT22;9206;50.994;4.538;2023-10-09T13:54:10;23.40;99.90
18163;DHT22;9206;50.994;4.538;2023-10-09T13:57:06;23.20;99.90
18163;DHT22;9206;50.994;4.538;2023-10-09T13:59:59;22.80;99.90
18163;DHT22;9206;50.994;4.538;2023-10-09T14:02:52;22.60;99.90
18163;DHT22;9206;50.994;4.538;2023-10-09T14:05:43;22.40;99.90
18163;DHT22;9206;50.994;4.538;2023-10-09T14:08:43;22.40;99.90
18163;DHT22;9206;50.994;4.538;2023-10-09T14:11:31;22.40;99.90
18163;DHT22;9206;50.994;4.538;2023-10-09T14:14:20;22.40;99.90
18163;DHT22;9206;50.994;4.538;2023-10-09T14:17:18;22.50;99.90
18163;DHT22;9206;50.994;4.538;2023-10-09T14:20:10;22.50;99.90
18163;DHT22;9206;50.994;4.538;2023-10-09T14:23:13;22.60;99.90
18163;DHT22;9206;50.994;4.538;2023-10-09T14:26:06;22.60;99.90
18163;DHT22;9206;50.994;4.538;2023-10-09T14:28:55;22.70;99.90
18163;DHT22;9206;50.994;4.538;2023-10-09T14:31:46;22.90;99.90
18163;DHT22;9206;50.994;4.538;2023-10-09T14:34:46;23.10;99.90
18163;DHT22;9206;50.994;4.538;2023-10-09T14:37:36;23.20;99.90
18163;DHT22;9206;50.994;4.538;2023-10-09T14:40:30;23.10;99.90
18163;DHT22;9206;50.994;4.538;2023-10-09T14:43:18;23.10;99.90
18163;DHT22;9206;50.994;4.538;2023-10-09T14:46:17;22.90;99.90
18163;DHT22;9206;50.994;4.538;2023-10-09T14:49:09;22.80;99.90
18163;DHT22;9206;50.994;4.538;2023-10-09T14:52:00;22.70;99.90
18163;DHT22;9206;50.994;4.538;2023-10-09T14:54:49;22.60;99.90
18163;DHT22;9206;50.994;4.538;2023-10-09T14:57:38;22.50;99.90
18163;DHT22;9206;50.994;4.538;2023-10-09T15:00:26;22.40;99.90
18163;DHT22;9206;50.994;4.538;2023-10-09T15:03:22;22.30;99.90
18163;DHT22;9206;50.994;4.538;2023-10-09T15:06:10;22.20;99.90
18163;DHT22;9206;50.994;4.538;2023-10-09T15:09:03;22.20;99.90
18163;DHT22;9206;50.994;4.538;2023-10-09T15:11:55;22.20;99.90
18163;DHT22;9206;50.994;4.538;2023-10-09T15:14:50;22.20;99.90
18163;DHT22;9206;50.994;4.538;2023-10-09T15:17:40;22.20;99.90
18163;DHT22;9206;50.994;4.538;2023-10-09T15:20:34;22.50;99.90
18163;DHT22;9206;50.994;4.538;2023-10-09T15:23:25;22.50;99.90
18163;DHT22;9206;50.994;4.538;2023-10-09T15:26:15;22.50;99.90
18163;DHT22;9206;50.994;4.538;2023-10-09T15:29:05;22.30;99.90
18163;DHT22;9206;50.994;4.538;2023-10-09T15:31:54;22.00;99.90
18163;DHT22;9206;50.994;4.538;2023-10-09T15:34:42;21.80;99.90
18163;DHT22;9206;50.994;4.538;2023-10-09T15:37:33;21.70;99.90
18163;DHT22;9206;50.994;4.538;2023-10-09T15:40:21;21.60;99.90
18163;DHT22;9206;50.994;4.538;2023-10-09T15:43:16;21.70;99.90
18163;DHT22;9206;50.994;4.538;2023-10-09T15:46:04;21.70;99.90
18163;DHT22;9206;50.994;4.538;2023-10-09T15:49:04;21.80;99.90
18163;DHT22;9206;50.994;4.538;2023-10-09T15:51:54;21.70;99.90
18163;DHT22;9206;50.994;4.538;2023-10-09T15:54:46;21.70;99.90
18163;DHT22;9206;50.994;4.538;2023-10-09T15:57:37;21.60;99.90
18163;DHT22;9206;50.994;4.538;2023-10-09T16:00:27;21.40;99.90
18163;DHT22;9206;50.994;4.538;2023-10-09T16:03:15;21.30;99.90
18163;DHT22;9206;50.994;4.538;2023-10-09T16:06:05;21.20;99.90
18163;DHT22;9206;50.994;4.538;2023-10-09T16:08:55;21.10;99.90
18163;DHT22;9206;50.994;4.538;2023-10-09T16:11:43;21.00;99.90
18163;DHT22;9206;50.994;4.538;2023-10-09T16:14:33;20.90;99.90
18163;DHT22;9206;50.994;4.538;2023-10-09T16:17:21;20.80;99.90
18163;DHT22;9206;50.994;4.538;2023-10-09T16:20:17;20.60;99.90
18163;DHT22;9206;50.994;4.538;2023-10-09T16:23:13;20.50;99.90
18163;DHT22;9206;50.994;4.538;2023-10-09T16:26:07;20.30;99.90
18163;DHT22;9206;50.994;4.538;2023-10-09T16:28:57;20.10;99.90
18163;DHT22;9206;50.994;4.538;2023-10-09T16:31:51;20.00;99.90
18163;DHT22;9206;50.994;4.538;2023-10-09T16:34:40;19.80;99.90
18163;DHT22;9206;50.994;4.538;2023-10-09T16:37:30;19.80;99.90
18163;DHT22;9206;50.994;4.538;2023-10-09T16:40:24;19.70;99.90
18163;DHT22;9206;50.994;4.538;2023-10-09T16:43:15;19.60;99.90
18163;DHT22;9206;50.994;4.538;2023-10-09T16:46:03;19.40;99.90
18163;DHT22;9206;50.994;4.538;2023-10-09T16:48:57;19.30;99.90
18163;DHT22;9206;50.994;4.538;2023-10-09T16:51:52;19.20;99.90
18163;DHT22;9206;50.994;4.538;2023-10-09T16:54:41;19.00;99.90
18163;DHT22;9206;50.994;4.538;2023-10-09T16:57:33;18.90;99.90
18163;DHT22;9206;50.994;4.538;2023-10-09T17:00:22;18.70;99.90
18163;DHT22;9206;50.994;4.538;2023-10-09T17:03:17;18.60;99.90
18163;DHT22;9206;50.994;4.538;2023-10-09T17:06:12;18.40;99.90
18163;DHT22;9206;50.994;4.538;2023-10-09T17:09:11;18.40;99.90
18163;DHT22;9206;50.994;4.538;2023-10-09T17:12:05;18.20;99.90
18163;DHT22;9206;50.994;4.538;2023-10-09T17:14:58;18.10;99.90
18163;DHT22;9206;50.994;4.538;2023-10-09T17:17:48;17.90;99.90
18163;DHT22;9206;50.994;4.538;2023-10-09T17:20:39;17.80;99.90
18163;DHT22;9206;50.994;4.538;2023-10-09T17:23:36;17.80;99.90
18163;DHT22;9206;50.994;4.538;2023-10-09T17:26:29;17.70;99.90
18163;DHT22;9206;50.994;4.538;2023-10-09T17:29:20;17.60;99.90
18163;DHT22;9206;50.994;4.538;2023-10-09T17:32:11;17.50;99.90
18163;DHT22;9206;50.994;4.538;2023-10-09T17:34:59;17.40;99.90
18163;DHT22;9206;50.994;4.538;2023-10-09T17:37:47;17.30;99.90
18163;DHT22;9206;50.994;4.538;2023-10-09T17:40:45;17.20;99.90
18163;DHT22;9206;50.994;4.538;2023-10-09T17:43:40;17.10;99.90
18163;DHT22;9206;50.994;4.538;2023-10-09T17:46:29;17.00;99.90
18163;DHT22;9206;50.994;4.538;2023-10-09T17:49:18;16.90;99.90
18163;DHT22;9206;50.994;4.538;2023-10-09T17:52:11;16.80;99.90
18163;DHT22;9206;50.994;4.538;2023-10-09T17:54:59;16.80;99.90
18163;DHT22;9206;50.994;4.538;2023-10-09T17:57:47;16.70;99.90
18163;DHT22;9206;50.994;4.538;2023-10-09T18:00:37;16.70;99.90
18163;DHT22;9206;50.994;4.538;2023-10-09T18:03:27;16.60;99.90
18163;DHT22;9206;50.994;4.538;2023-10-09T18:06:19;16.50;99.90
18163;DHT22;9206;50.994;4.538;2023-10-09T18:09:07;16.50;99.90
18163;DHT22;9206;50.994;4.538;2023-10-09T18:12:02;16.50;99.90
18163;DHT22;9206;50.994;4.538;2023-10-09T18:14:50;16.50;99.90
18163;DHT22;9206;50.994;4.538;2023-10-09T18:17:40;16.50;99.90
18163;DHT22;9206;50.994;4.538;2023-10-09T18:20:31;16.40;99.90
18163;DHT22;9206;50.994;4.538;2023-10-09T18:23:23;16.40;99.90
18163;DHT22;9206;50.994;4.538;2023-10-09T18:26:11;16.30;99.90
18163;DHT22;9206;50.994;4.538;2023-10-09T18:29:00;16.30;99.90
18163;DHT22;9206;50.994;4.538;2023-10-09T18:31:53;16.20;99.90
18163;DHT22;9206;50.994;4.538;2023-10-09T18:34:40;16.20;99.90
18163;DHT22;9206;50.994;4.538;2023-10-09T18:37:29;16.20;99.90
18163;DHT22;9206;50.994;4.538;2023-10-09T18:40:24;16.10;99.90
18163;DHT22;9206;50.994;4.538;2023-10-09T18:43:18;16.10;99.90
18163;DHT22;9206;50.994;4.538;2023-10-09T18:46:06;16.00;99.90
18163;DHT22;9206;50.994;4.538;2023-10-09T18:48:58;16.00;99.90
18163;DHT22;9206;50.994;4.538;2023-10-09T18:51:47;16.00;99.90
18163;DHT22;9206;50.994;4.538;2023-10-09T18:54:34;15.90;99.90